sensor_id;sensor_type;location;lat;lon;timestamp;temperature;humidity
14349;DHT22;7258;50.376;8.742;2023-09-18T00:01:11;18.30;99.90
14349;DHT22;7258;50.376;8.742;2023-09-18T00:03:13;18.20;99.90
14349;DHT22;7258;50.376;8.742;2023-09-18T00:05:15;18.20;99.90
14349;DHT22;7258;50.376;8.742;2023-09-18T00:07:18;18.20;99.90
14349;DHT22;7258;50.376;8.742;2023-09-18T00:09:21;18.20;99.90
14349;DHT22;7258;50.376;8.742;2023-09-18T00:11:24;18.10;99.90
14349;DHT22;7258;50.376;8.742;2023-09-18T00:13:27;18.10;99.90
14349;DHT22;7258;50.376;8.742;2023-09-18T00:15:31;18.10;99.90
14349;DHT22;7258;50.376;8.742;2023-09-18T00:17:34;18.00;99.90
14349;DHT22;7258;50.376;8.742;2023-09-18T00:19:37;18.00;99.90
14349;DHT22;7258;50.376;8.742;2023-09-18T00:21:40;18.00;99.90
14349;DHT22;7258;50.376;8.742;2023-09-18T00:23:43;17.90;99.90
14349;DHT22;7258;50.376;8.742;2023-09-18T00:25:47;17.90;99.90
14349;DHT22;7258;50.376;8.742;2023-09-18T00:27:50;17.90;99.90
14349;DHT22;7258;50.376;8.742;2023-09-18T00:29:54;17.80;99.90
14349;DHT22;7258;50.376;8.742;2023-09-18T00:31:58;17.90;99.90
14349;DHT22;7258;50.376;8.742;2023-09-18T00:34:01;17.80;99.90
14349;DHT22;7258;50.376;8.742;2023-09-18T00:36:04;17.80;99.90
14349;DHT22;7258;50.376;8.742;2023-09-18T00:38:07;17.80;99.90
14349;DHT22;7258;50.376;8.742;2023-09-18T00:40:12;17.70;99.90
14349;DHT22;7258;50.376;8.742;2023-09-18T00:42:14;17.70;99.90
14349;DHT22;7258;50.376;8.742;2023-09-18T00:44:19;17.70;99.90
14349;DHT22;7258;50.376;8.742;2023-09-18T00:46:22;17.70;99.90
14349;DHT22;7258;50.376;8.742;2023-09-18T00:48:27;17.70;99.90
14349;DHT22;7258;50.376;8.742;2023-09-18T00:50:31;17.60;99.90
14349;DHT22;7258;50.376;8.742;2023-09-18T00:52:34;17.60;99.90
14349;DHT22;7258;50.376;8.742;2023-09-18T00:54:38;17.60;99.90
14349;DHT22;7258;50.376;8.742;2023-09-18T00:56:41;17.60;99.90
14349;DHT22;7258;50.376;8.742;2023-09-18T00:58:44;17.50;99.90
14349;DHT22;7258;50.376;8.742;2023-09-18T01:00:48;17.50;99.90
14349;DHT22;7258;50.376;8.742;2023-09-18T01:02:53;17.50;99.90
14349;DHT22;7258;50.376;8.742;2023-09-18T01:04:57;17.40;99.90
14349;DHT22;7258;50.376;8.742;2023-09-18T01:07:00;17.40;99.90
14349;DHT22;7258;50.376;8.742;2023-09-18T01:09:05;17.40;99.90
14349;DHT22;7258;50.376;8.742;2023-09-18T01:11:21;17.40;99.90
14349;DHT22;7258;50.376;8.742;2023-09-18T01:13:33;17.40;99.90
14349;DHT22;7258;50.376;8.742;2023-09-18T01:15:43;17.30;99.90
14349;DHT22;7258;50.376;8.742;2023-09-18T01:17:47;17.40;99.90
14349;DHT22;7258;50.376;8.742;2023-09-18T01:19:50;17.30;99.90
14349;DHT22;7258;50.376;8.742;2023-09-18T01:21:54;17.40;99.90
14349;DHT22;7258;50.376;8.742;2023-09-18T01:23:58;17.40;99.90
14349;DHT22;7258;50.376;8.742;2023-09-18T01:26:00;17.40;99.90
14349;DHT22;7258;50.376;8.742;2023-09-18T01:28:04;17.40;99.90
14349;DHT22;7258;50.376;8.742;2023-09-18T01:30:07;17.40;99.90
14349;DHT22;7258;50.376;8.742;2023-09-18T01:32:10;17.40;99.90
14349;DHT22;7258;50.376;8.742;2023-09-18T01:34:12;17.30;99.90
14349;DHT22;7258;50.376;8.742;2023-09-18T01:36:16;17.30;99.90
14349;DHT22;7258;50.376;8.742;2023-09-18T01:38:20;17.40;99.90
14349;DHT22;7258;50.376;8.742;2023-09-18T01:40:25;17.40;99.90
14349;DHT22;7258;50.376;8.742;2023-09-18T01:42:29;17.30;99.90
14349;DHT22;7258;50.376;8.742;2023-09-18T01:44:33;17.30;99.90
14349;DHT22;7258;50.376;8.742;2023-09-18T01:46:35;17.40;99.90
14349;DHT22;7258;50.376;8.742;2023-09-18T01:48:45;17.40;99.90
14349;DHT22;7258;50.376;8.742;2023-09-18T01:50:48;17.40;99.90
14349;DHT22;7258;50.376;8.742;2023-09-18T01:52:51;17.40;99.90
14349;DHT22;7258;50.376;8.742;2023-09-18T01:54:54;17.40;99.90
14349;DHT22;7258;50.376;8.742;2023-09-18T01:56:58;17.40;99.90
14349;DHT22;7258;50.376;8.742;2023-09-18T01:59:01;17.30;99.90
14349;DHT22;7258;50.376;8.742;2023-09-18T02:01:05;17.30;99.90
14349;DHT22;7258;50.376;8.742;2023-09-18T02:03:08;17.30;99.90
14349;DHT22;7258;50.376;8.742;2023-09-18T02:05:30;17.30;99.90
14349;DHT22;7258;50.376;8.742;2023-09-18T02:07:34;17.30;99.90
14349;DHT22;7258;50.376;8.742;2023-09-18T02:09:37;17.30;99.90
14349;DHT22;7258;50.376;8.742;2023-09-18T02:11:42;17.30;99.90
14349;DHT22;7258;50.376;8.742;2023-09-18T02:13:46;17.30;99.90
14349;DHT22;7258;50.376;8.742;2023-09-18T02:15:49;17.20;99.90
14349;DHT22;7258;50.376;8.742;2023-09-18T02:17:52;17.20;99.90
14349;DHT22;7258;50.376;8.742;2023-09-18T02:19:55;17.30;99.90
14349;DHT22;7258;50.376;8.742;2023-09-18T02:21:58;17.30;99.90
14349;DHT22;7258;50.376;8.742;2023-09-18T02:24:01;17.20;99.90
14349;DHT22;7258;50.376;8.742;2023-09-18T02:26:03;17.30;99.90
14349;DHT22;7258;50.376;8.742;2023-09-18T02:28:06;17.30;99.90
14349;DHT22;7258;50.376;8.742;2023-09-18T02:30:11;17.40;99.90
14349;DHT22;7258;50.376;8.742;2023-09-18T02:32:14;17.40;99.90
14349;DHT22;7258;50.376;8.742;2023-09-18T02:34:17;17.50;99.90
14349;DHT22;7258;50.376;8.742;2023-09-18T02:36:21;17.50;99.90
14349;DHT22;7258;50.376;8.742;2023-09-18T02:38:23;17.60;99.90
14349;DHT22;7258;50.376;8.742;2023-09-18T02:40:26;17.70;99.90
14349;DHT22;7258;50.376;8.742;2023-09-18T02:42:29;17.80;99.90
14349;DHT22;7258;50.376;8.742;2023-09-18T02:44:32;17.80;99.90
14349;DHT22;7258;50.376;8.742;2023-09-18T02:46:37;17.90;99.90
14349;DHT22;7258;50.376;8.742;2023-09-18T02:48:39;18.10;99.90
14349;DHT22;7258;50.376;8.742;2023-09-18T02:50:42;18.10;99.90
14349;DHT22;7258;50.376;8.742;2023-09-18T02:52:45;18.20;99.90
14349;DHT22;7258;50.376;8.742;2023-09-18T02:54:48;18.20;99.90
14349;DHT22;7258;50.376;8.742;2023-09-18T02:56:51;18.20;99.90
14349;DHT22;7258;50.376;8.742;2023-09-18T02:58:54;18.20;99.90
14349;DHT22;7258;50.376;8.742;2023-09-18T03:00:57;18.20;99.90
14349;DHT22;7258;50.376;8.742;2023-09-18T03:03:03;18.20;99.90
14349;DHT22;7258;50.376;8.742;2023-09-18T03:05:06;18.10;99.90
14349;DHT22;7258;50.376;8.742;2023-09-18T03:07:12;18.10;99.90
14349;DHT22;7258;50.376;8.742;2023-09-18T03:09:15;18.00;99.90
14349;DHT22;7258;50.376;8.742;2023-09-18T03:11:18;18.00;99.90
14349;DHT22;7258;50.376;8.742;2023-09-18T03:13:21;18.00;99.90
14349;DHT22;7258;50.376;8.742;2023-09-18T03:15:24;17.90;99.90
14349;DHT22;7258;50.376;8.742;2023-09-18T03:17:26;18.00;99.90
14349;DHT22;7258;50.376;8.742;2023-09-18T03:19:30;17.90;99.90
14349;DHT22;7258;50.376;8.742;2023-09-18T03:21:33;17.90;99.90
14349;DHT22;7258;50.376;8.742;2023-09-18T03:23:37;17.90;99.90
14349;DHT22;7258;50.376;8.742;2023-09-18T03:25:40;17.90;99.90
14349;DHT22;7258;50.376;8.742;2023-09-18T03:27:53;17.90;99.90
14349;DHT22;7258;50.376;8.742;2023-09-18T03:29:55;17.80;99.90
14349;DHT22;7258;50.376;8.742;2023-09-18T03:31:58;17.80;99.90
14349;DHT22;7258;50.376;8.742;2023-09-18T03:34:01;17.80;99.90
14349;DHT22;7258;50.376;8.742;2023-09-18T03:36:06;17.80;99.90
14349;DHT22;7258;50.376;8.742;2023-09-18T03:38:09;17.80;99.90
14349;DHT22;7258;50.376;8.742;2023-09-18T03:40:12;17.80;99.90
14349;DHT22;7258;50.376;8.742;2023-09-18T03:42:15;17.70;99.90
14349;DHT22;7258;50.376;8.742;2023-09-18T03:44:18;17.70;99.90
14349;DHT22;7258;50.376;8.742;2023-09-18T03:46:22;17.70;99.90
14349;DHT22;7258;50.376;8.742;2023-09-18T03:48:40;17.70;99.90
14349;DHT22;7258;50.376;8.742;2023-09-18T03:50:42;17.70;99.90
14349;DHT22;7258;50.376;8.742;2023-09-18T03:52:57;17.70;99.90
14349;DHT22;7258;50.376;8.742;2023-09-18T03:55:18;17.70;99.90
14349;DHT22;7258;50.376;8.742;2023-09-18T03:57:44;17.70;99.90
14349;DHT22;7258;50.376;8.742;2023-09-18T03:59:56;17.70;99.90
14349;DHT22;7258;50.376;8.742;2023-09-18T04:02:32;17.70;99.90
14349;DHT22;7258;50.376;8.742;2023-09-18T04:09:13;17.70;99.90
14349;DHT22;7258;50.376;8.742;2023-09-18T04:11:51;17.80;99.90
14349;DHT22;7258;50.376;8.742;2023-09-18T04:14:57;17.70;99.90
14349;DHT22;7258;50.376;8.742;2023-09-18T04:18:06;17.70;99.90
14349;DHT22;7258;50.376;8.742;2023-09-18T04:24:14;17.70;99.90
14349;DHT22;7258;50.376;8.742;2023-09-18T04:29:53;17.60;99.90
14349;DHT22;7258;50.376;8.742;2023-09-18T04:32:40;17.60;99.90
14349;DHT22;7258;50.376;8.742;2023-09-18T04:34:40;17.60;99.90
14349;DHT22;7258;50.376;8.742;2023-09-18T04:37:05;17.70;99.90
14349;DHT22;7258;50.376;8.742;2023-09-18T04:39:34;17.60;99.90
14349;DHT22;7258;50.376;8.742;2023-09-18T04:41:42;17.70;99.90
14349;DHT22;7258;50.376;8.742;2023-09-18T04:44:18;17.70;99.90
14349;DHT22;7258;50.376;8.742;2023-09-18T04:46:23;17.80;99.90
14349;DHT22;7258;50.376;8.742;2023-09-18T04:48:42;17.90;99.90
14349;DHT22;7258;50.376;8.742;2023-09-18T04:50:46;17.90;99.90
14349;DHT22;7258;50.376;8.742;2023-09-18T04:52:51;18.00;99.90
14349;DHT22;7258;50.376;8.742;2023-09-18T04:55:18;18.10;99.90
14349;DHT22;7258;50.376;8.742;2023-09-18T04:58:12;18.10;99.90
14349;DHT22;7258;50.376;8.742;2023-09-18T05:00:45;18.10;99.90
14349;DHT22;7258;50.376;8.742;2023-09-18T05:03:27;18.20;99.90
14349;DHT22;7258;50.376;8.742;2023-09-18T05:05:45;18.10;99.90
14349;DHT22;7258;50.376;8.742;2023-09-18T05:07:50;18.20;99.90
14349;DHT22;7258;50.376;8.742;2023-09-18T05:09:58;18.20;99.90
14349;DHT22;7258;50.376;8.742;2023-09-18T05:12:30;18.20;99.90
14349;DHT22;7258;50.376;8.742;2023-09-18T05:15:09;18.20;99.90
14349;DHT22;7258;50.376;8.742;2023-09-18T05:17:49;18.20;99.90
14349;DHT22;7258;50.376;8.742;2023-09-18T05:19:54;18.20;99.90
14349;DHT22;7258;50.376;8.742;2023-09-18T05:21:57;18.20;99.90
14349;DHT22;7258;50.376;8.742;2023-09-18T05:24:00;18.20;99.90
14349;DHT22;7258;50.376;8.742;2023-09-18T05:26:03;18.20;99.90
14349;DHT22;7258;50.376;8.742;2023-09-18T05:28:07;18.20;99.90
14349;DHT22;7258;50.376;8.742;2023-09-18T05:30:12;18.20;99.90
14349;DHT22;7258;50.376;8.742;2023-09-18T05:32:17;18.20;99.90
14349;DHT22;7258;50.376;8.742;2023-09-18T05:34:19;18.30;99.90
14349;DHT22;7258;50.376;8.742;2023-09-18T05:36:22;18.30;99.90
14349;DHT22;7258;50.376;8.742;2023-09-18T05:38:25;18.30;99.90
14349;DHT22;7258;50.376;8.742;2023-09-18T05:40:28;18.30;99.90
14349;DHT22;7258;50.376;8.742;2023-09-18T05:42:31;18.30;99.90
14349;DHT22;7258;50.376;8.742;2023-09-18T05:44:35;18.30;99.90
14349;DHT22;7258;50.376;8.742;2023-09-18T05:46:41;18.30;99.90
14349;DHT22;7258;50.376;8.742;2023-09-18T05:48:44;18.40;99.90
14349;DHT22;7258;50.376;8.742;2023-09-18T05:50:46;18.40;99.90
14349;DHT22;7258;50.376;8.742;2023-09-18T05:52:50;18.30;99.90
14349;DHT22;7258;50.376;8.742;2023-09-18T05:54:53;18.40;99.90
14349;DHT22;7258;50.376;8.742;2023-09-18T05:56:56;18.40;99.90
14349;DHT22;7258;50.376;8.742;2023-09-18T05:58:58;18.40;99.90
14349;DHT22;7258;50.376;8.742;2023-09-18T06:01:03;18.50;99.90
14349;DHT22;7258;50.376;8.742;2023-09-18T06:03:06;18.50;99.90
14349;DHT22;7258;50.376;8.742;2023-09-18T06:05:09;18.50;99.90
14349;DHT22;7258;50.376;8.742;2023-09-18T06:07:13;18.60;99.90
14349;DHT22;7258;50.376;8.742;2023-09-18T06:09:16;18.60;99.90
14349;DHT22;7258;50.376;8.742;2023-09-18T06:11:19;18.70;99.90
14349;DHT22;7258;50.376;8.742;2023-09-18T06:13:24;18.80;99.90
14349;DHT22;7258;50.376;8.742;2023-09-18T06:15:27;18.80;99.90
14349;DHT22;7258;50.376;8.742;2023-09-18T06:17:31;18.90;99.90
14349;DHT22;7258;50.376;8.742;2023-09-18T06:19:35;18.90;99.90
14349;DHT22;7258;50.376;8.742;2023-09-18T06:21:38;19.00;99.90
14349;DHT22;7258;50.376;8.742;2023-09-18T06:23:41;19.00;99.90
14349;DHT22;7258;50.376;8.742;2023-09-18T06:25:44;19.00;99.90
14349;DHT22;7258;50.376;8.742;2023-09-18T06:27:47;19.00;99.90
14349;DHT22;7258;50.376;8.742;2023-09-18T06:29:50;19.00;99.90
14349;DHT22;7258;50.376;8.742;2023-09-18T06:31:53;19.00;99.90
14349;DHT22;7258;50.376;8.742;2023-09-18T06:33:57;19.00;99.90
14349;DHT22;7258;50.376;8.742;2023-09-18T06:36:00;18.90;99.90
14349;DHT22;7258;50.376;8.742;2023-09-18T06:38:03;18.90;99.90
14349;DHT22;7258;50.376;8.742;2023-09-18T06:40:09;18.90;99.90
14349;DHT22;7258;50.376;8.742;2023-09-18T06:42:11;18.90;99.90
14349;DHT22;7258;50.376;8.742;2023-09-18T06:44:14;18.90;99.90
14349;DHT22;7258;50.376;8.742;2023-09-18T06:46:17;18.90;99.90
14349;DHT22;7258;50.376;8.742;2023-09-18T06:48:24;18.80;99.90
14349;DHT22;7258;50.376;8.742;2023-09-18T06:50:28;18.90;99.90
14349;DHT22;7258;50.376;8.742;2023-09-18T06:52:32;18.90;99.90
14349;DHT22;7258;50.376;8.742;2023-09-18T06:54:35;18.90;99.90
14349;DHT22;7258;50.376;8.742;2023-09-18T06:56:39;18.90;99.90
14349;DHT22;7258;50.376;8.742;2023-09-18T06:58:43;18.90;99.90
14349;DHT22;7258;50.376;8.742;2023-09-18T07:00:46;18.90;99.90
14349;DHT22;7258;50.376;8.742;2023-09-18T07:02:49;19.00;99.90
14349;DHT22;7258;50.376;8.742;2023-09-18T07:04:52;19.00;99.90
14349;DHT22;7258;50.376;8.742;2023-09-18T07:06:56;19.00;99.90
14349;DHT22;7258;50.376;8.742;2023-09-18T07:08:59;19.10;99.90
14349;DHT22;7258;50.376;8.742;2023-09-18T07:11:03;19.10;99.90
14349;DHT22;7258;50.376;8.742;2023-09-18T07:13:06;19.20;99.90
14349;DHT22;7258;50.376;8.742;2023-09-18T07:15:10;19.20;99.90
14349;DHT22;7258;50.376;8.742;2023-09-18T07:17:13;19.20;99.90
14349;DHT22;7258;50.376;8.742;2023-09-18T07:19:17;19.20;99.90
14349;DHT22;7258;50.376;8.742;2023-09-18T07:21:19;19.30;99.90
14349;DHT22;7258;50.376;8.742;2023-09-18T07:23:24;19.30;99.90
14349;DHT22;7258;50.376;8.742;2023-09-18T07:25:27;19.30;99.90
14349;DHT22;7258;50.376;8.742;2023-09-18T07:27:30;19.30;99.90
14349;DHT22;7258;50.376;8.742;2023-09-18T07:29:33;19.40;99.90
14349;DHT22;7258;50.376;8.742;2023-09-18T07:31:37;19.40;99.90
14349;DHT22;7258;50.376;8.742;2023-09-18T07:33:40;19.50;99.90
14349;DHT22;7258;50.376;8.742;2023-09-18T07:35:45;19.50;99.90
14349;DHT22;7258;50.376;8.742;2023-09-18T07:37:55;19.60;99.90
14349;DHT22;7258;50.376;8.742;2023-09-18T07:40:00;19.60;99.90
14349;DHT22;7258;50.376;8.742;2023-09-18T07:42:02;19.70;99.90
14349;DHT22;7258;50.376;8.742;2023-09-18T07:44:06;19.70;99.90
14349;DHT22;7258;50.376;8.742;2023-09-18T07:46:09;19.80;99.90
14349;DHT22;7258;50.376;8.742;2023-09-18T07:48:11;19.80;99.90
14349;DHT22;7258;50.376;8.742;2023-09-18T07:50:14;19.80;99.90
14349;DHT22;7258;50.376;8.742;2023-09-18T07:52:20;19.80;99.90
14349;DHT22;7258;50.376;8.742;2023-09-18T07:54:23;19.80;99.90
14349;DHT22;7258;50.376;8.742;2023-09-18T07:56:27;19.80;99.90
14349;DHT22;7258;50.376;8.742;2023-09-18T07:58:33;19.90;99.90
14349;DHT22;7258;50.376;8.742;2023-09-18T08:00:40;19.90;99.90
14349;DHT22;7258;50.376;8.742;2023-09-18T08:02:43;20.00;99.90
14349;DHT22;7258;50.376;8.742;2023-09-18T08:04:48;20.00;99.90
14349;DHT22;7258;50.376;8.742;2023-09-18T08:06:51;20.00;99.90
14349;DHT22;7258;50.376;8.742;2023-09-18T08:08:54;20.00;99.90
14349;DHT22;7258;50.376;8.742;2023-09-18T08:10:57;20.10;99.90
14349;DHT22;7258;50.376;8.742;2023-09-18T08:13:05;20.10;99.90
14349;DHT22;7258;50.376;8.742;2023-09-18T08:15:09;20.20;99.90
14349;DHT22;7258;50.376;8.742;2023-09-18T08:17:12;20.30;99.90
14349;DHT22;7258;50.376;8.742;2023-09-18T08:19:15;20.40;99.90
14349;DHT22;7258;50.376;8.742;2023-09-18T08:21:20;20.50;99.90
14349;DHT22;7258;50.376;8.742;2023-09-18T08:23:25;20.60;99.90
14349;DHT22;7258;50.376;8.742;2023-09-18T08:25:28;20.70;99.90
14349;DHT22;7258;50.376;8.742;2023-09-18T08:27:31;20.80;99.90
14349;DHT22;7258;50.376;8.742;2023-09-18T08:29:35;20.90;99.90
14349;DHT22;7258;50.376;8.742;2023-09-18T08:31:38;20.90;99.90
14349;DHT22;7258;50.376;8.742;2023-09-18T08:33:41;20.90;99.90
14349;DHT22;7258;50.376;8.742;2023-09-18T08:35:44;20.90;99.90
14349;DHT22;7258;50.376;8.742;2023-09-18T08:37:48;21.00;99.90
14349;DHT22;7258;50.376;8.742;2023-09-18T08:39:51;21.00;99.90
14349;DHT22;7258;50.376;8.742;2023-09-18T08:41:58;21.10;99.90
14349;DHT22;7258;50.376;8.742;2023-09-18T08:44:03;21.20;99.90
14349;DHT22;7258;50.376;8.742;2023-09-18T08:46:07;21.30;99.90
14349;DHT22;7258;50.376;8.742;2023-09-18T08:48:10;21.30;99.90
14349;DHT22;7258;50.376;8.742;2023-09-18T08:50:15;21.40;99.90
14349;DHT22;7258;50.376;8.742;2023-09-18T08:52:18;21.40;99.90
14349;DHT22;7258;50.376;8.742;2023-09-18T08:54:22;21.60;99.90
14349;DHT22;7258;50.376;8.742;2023-09-18T08:56:27;21.70;99.90
14349;DHT22;7258;50.376;8.742;2023-09-18T08:58:32;21.80;99.90
14349;DHT22;7258;50.376;8.742;2023-09-18T09:00:37;21.80;99.90
14349;DHT22;7258;50.376;8.742;2023-09-18T09:02:41;21.90;99.90
14349;DHT22;7258;50.376;8.742;2023-09-18T09:04:43;21.90;99.90
14349;DHT22;7258;50.376;8.742;2023-09-18T09:06:46;21.90;99.90
14349;DHT22;7258;50.376;8.742;2023-09-18T09:08:49;21.90;99.90
14349;DHT22;7258;50.376;8.742;2023-09-18T09:10:52;21.80;99.90
14349;DHT22;7258;50.376;8.742;2023-09-18T09:12:57;21.70;99.90
14349;DHT22;7258;50.376;8.742;2023-09-18T09:15:03;21.60;99.90
14349;DHT22;7258;50.376;8.742;2023-09-18T09:17:05;21.50;99.90
14349;DHT22;7258;50.376;8.742;2023-09-18T09:19:10;21.50;99.90
14349;DHT22;7258;50.376;8.742;2023-09-18T09:21:13;21.50;99.90
14349;DHT22;7258;50.376;8.742;2023-09-18T09:23:15;21.50;99.90
14349;DHT22;7258;50.376;8.742;2023-09-18T09:25:25;21.50;99.90
14349;DHT22;7258;50.376;8.742;2023-09-18T09:27:28;21.40;99.90
14349;DHT22;7258;50.376;8.742;2023-09-18T09:29:31;21.50;99.90
14349;DHT22;7258;50.376;8.742;2023-09-18T09:31:34;21.40;99.90
14349;DHT22;7258;50.376;8.742;2023-09-18T09:33:37;21.50;99.90
14349;DHT22;7258;50.376;8.742;2023-09-18T09:35:43;21.50;99.90
14349;DHT22;7258;50.376;8.742;2023-09-18T09:37:46;21.40;99.90
14349;DHT22;7258;50.376;8.742;2023-09-18T09:39:50;21.50;99.90
14349;DHT22;7258;50.376;8.742;2023-09-18T09:41:53;21.50;99.90
14349;DHT22;7258;50.376;8.742;2023-09-18T09:43:57;21.60;99.90
14349;DHT22;7258;50.376;8.742;2023-09-18T09:46:01;21.60;99.90
14349;DHT22;7258;50.376;8.742;2023-09-18T09:48:05;21.60;99.90
14349;DHT22;7258;50.376;8.742;2023-09-18T09:50:10;21.60;99.90
14349;DHT22;7258;50.376;8.742;2023-09-18T09:52:19;21.70;99.90
14349;DHT22;7258;50.376;8.742;2023-09-18T09:54:32;21.70;99.90
14349;DHT22;7258;50.376;8.742;2023-09-18T09:56:44;21.80;99.90
14349;DHT22;7258;50.376;8.742;2023-09-18T09:59:00;21.80;99.90
14349;DHT22;7258;50.376;8.742;2023-09-18T10:01:06;21.80;99.90
14349;DHT22;7258;50.376;8.742;2023-09-18T10:03:14;21.90;99.90
14349;DHT22;7258;50.376;8.742;2023-09-18T10:05:18;21.90;99.90
14349;DHT22;7258;50.376;8.742;2023-09-18T10:07:22;21.90;99.90
14349;DHT22;7258;50.376;8.742;2023-09-18T10:09:26;21.90;99.90
14349;DHT22;7258;50.376;8.742;2023-09-18T10:11:31;21.80;99.90
14349;DHT22;7258;50.376;8.742;2023-09-18T10:13:41;21.80;99.90
14349;DHT22;7258;50.376;8.742;2023-09-18T10:15:50;21.70;99.90
14349;DHT22;7258;50.376;8.742;2023-09-18T10:17:56;21.70;99.90
14349;DHT22;7258;50.376;8.742;2023-09-18T10:20:02;21.70;99.90
14349;DHT22;7258;50.376;8.742;2023-09-18T10:22:15;21.70;99.90
14349;DHT22;7258;50.376;8.742;2023-09-18T10:24:28;21.80;99.90
14349;DHT22;7258;50.376;8.742;2023-09-18T10:26:35;21.80;99.90
14349;DHT22;7258;50.376;8.742;2023-09-18T10:28:40;21.80;99.90
14349;DHT22;7258;50.376;8.742;2023-09-18T10:30:44;21.90;99.90
14349;DHT22;7258;50.376;8.742;2023-09-18T10:32:47;22.00;99.90
14349;DHT22;7258;50.376;8.742;2023-09-18T10:34:51;22.00;99.90
14349;DHT22;7258;50.376;8.742;2023-09-18T10:36:54;22.00;99.90
14349;DHT22;7258;50.376;8.742;2023-09-18T10:38:58;22.00;99.90
14349;DHT22;7258;50.376;8.742;2023-09-18T10:41:03;21.90;99.90
14349;DHT22;7258;50.376;8.742;2023-09-18T10:43:11;21.80;99.90
14349;DHT22;7258;50.376;8.742;2023-09-18T10:45:14;21.90;99.90
14349;DHT22;7258;50.376;8.742;2023-09-18T10:47:17;21.90;99.90
14349;DHT22;7258;50.376;8.742;2023-09-18T10:49:22;22.00;99.90
14349;DHT22;7258;50.376;8.742;2023-09-18T10:51:25;22.10;99.90
14349;DHT22;7258;50.376;8.742;2023-09-18T10:53:28;22.20;99.90
14349;DHT22;7258;50.376;8.742;2023-09-18T10:55:31;22.30;99.90
14349;DHT22;7258;50.376;8.742;2023-09-18T10:57:36;22.40;99.90
14349;DHT22;7258;50.376;8.742;2023-09-18T10:59:43;22.40;99.90
14349;DHT22;7258;50.376;8.742;2023-09-18T11:01:47;22.40;99.90
14349;DHT22;7258;50.376;8.742;2023-09-18T11:03:50;22.40;99.90
14349;DHT22;7258;50.376;8.742;2023-09-18T11:06:04;22.40;99.90
14349;DHT22;7258;50.376;8.742;2023-09-18T11:08:29;22.50;99.90
14349;DHT22;7258;50.376;8.742;2023-09-18T11:10:32;22.50;99.90
14349;DHT22;7258;50.376;8.742;2023-09-18T11:12:44;22.60;99.90
14349;DHT22;7258;50.376;8.742;2023-09-18T11:14:49;22.70;99.90
14349;DHT22;7258;50.376;8.742;2023-09-18T11:16:56;22.80;99.90
14349;DHT22;7258;50.376;8.742;2023-09-18T11:19:07;23.10;99.90
14349;DHT22;7258;50.376;8.742;2023-09-18T11:21:11;23.30;99.90
14349;DHT22;7258;50.376;8.742;2023-09-18T11:23:16;23.50;99.90
14349;DHT22;7258;50.376;8.742;2023-09-18T11:25:44;23.50;99.90
14349;DHT22;7258;50.376;8.742;2023-09-18T11:27:55;23.40;99.90
14349;DHT22;7258;50.376;8.742;2023-09-18T11:29:57;23.40;99.90
14349;DHT22;7258;50.376;8.742;2023-09-18T11:32:00;23.30;99.90
14349;DHT22;7258;50.376;8.742;2023-09-18T11:34:11;23.30;99.90
14349;DHT22;7258;50.376;8.742;2023-09-18T11:36:15;23.30;99.90
14349;DHT22;7258;50.376;8.742;2023-09-18T11:38:33;23.30;99.90
14349;DHT22;7258;50.376;8.742;2023-09-18T11:40:37;23.30;99.90
14349;DHT22;7258;50.376;8.742;2023-09-18T11:45:22;23.20;99.90
14349;DHT22;7258;50.376;8.742;2023-09-18T11:47:25;23.20;99.90
14349;DHT22;7258;50.376;8.742;2023-09-18T11:49:29;23.20;99.90
14349;DHT22;7258;50.376;8.742;2023-09-18T11:51:34;23.20;99.90
14349;DHT22;7258;50.376;8.742;2023-09-18T11:53:38;23.30;99.90
14349;DHT22;7258;50.376;8.742;2023-09-18T11:55:44;23.30;99.90
14349;DHT22;7258;50.376;8.742;2023-09-18T11:57:47;23.20;99.90
14349;DHT22;7258;50.376;8.742;2023-09-18T11:59:51;23.30;99.90
14349;DHT22;7258;50.376;8.742;2023-09-18T12:01:56;23.30;99.90
14349;DHT22;7258;50.376;8.742;2023-09-18T12:04:04;23.40;99.90
14349;DHT22;7258;50.376;8.742;2023-09-18T12:06:10;23.30;99.90
14349;DHT22;7258;50.376;8.742;2023-09-18T12:08:14;23.20;99.90
14349;DHT22;7258;50.376;8.742;2023-09-18T12:10:20;23.10;99.90
14349;DHT22;7258;50.376;8.742;2023-09-18T12:12:23;23.10;99.90
14349;DHT22;7258;50.376;8.742;2023-09-18T12:14:27;23.00;99.90
14349;DHT22;7258;50.376;8.742;2023-09-18T12:16:31;23.10;99.90
14349;DHT22;7258;50.376;8.742;2023-09-18T12:18:46;23.10;99.90
14349;DHT22;7258;50.376;8.742;2023-09-18T12:20:50;22.90;99.90
14349;DHT22;7258;50.376;8.742;2023-09-18T12:22:53;23.00;99.90
14349;DHT22;7258;50.376;8.742;2023-09-18T12:25:09;23.20;99.90
14349;DHT22;7258;50.376;8.742;2023-09-18T12:27:15;23.30;99.90
14349;DHT22;7258;50.376;8.742;2023-09-18T12:29:18;23.40;99.90
14349;DHT22;7258;50.376;8.742;2023-09-18T12:31:21;23.60;99.90
14349;DHT22;7258;50.376;8.742;2023-09-18T12:33:24;23.60;99.90
14349;DHT22;7258;50.376;8.742;2023-09-18T12:35:28;23.60;99.90
14349;DHT22;7258;50.376;8.742;2023-09-18T12:37:32;23.70;99.90
14349;DHT22;7258;50.376;8.742;2023-09-18T12:39:35;23.70;99.90
14349;DHT22;7258;50.376;8.742;2023-09-18T12:41:38;23.80;99.90
14349;DHT22;7258;50.376;8.742;2023-09-18T12:43:42;23.80;99.90
14349;DHT22;7258;50.376;8.742;2023-09-18T12:45:45;23.90;99.90
14349;DHT22;7258;50.376;8.742;2023-09-18T12:47:49;23.90;99.90
14349;DHT22;7258;50.376;8.742;2023-09-18T12:49:52;23.90;99.90
14349;DHT22;7258;50.376;8.742;2023-09-18T12:51:57;23.90;99.90
14349;DHT22;7258;50.376;8.742;2023-09-18T12:54:01;23.80;99.90
14349;DHT22;7258;50.376;8.742;2023-09-18T12:56:09;23.80;99.90
14349;DHT22;7258;50.376;8.742;2023-09-18T12:58:12;23.90;99.90
14349;DHT22;7258;50.376;8.742;2023-09-18T13:00:17;24.00;99.90
14349;DHT22;7258;50.376;8.742;2023-09-18T13:02:21;24.10;99.90
14349;DHT22;7258;50.376;8.742;2023-09-18T13:04:31;24.20;99.90
14349;DHT22;7258;50.376;8.742;2023-09-18T13:06:42;24.20;99.90
14349;DHT22;7258;50.376;8.742;2023-09-18T13:08:48;24.10;99.90
14349;DHT22;7258;50.376;8.742;2023-09-18T13:10:55;24.00;99.90
14349;DHT22;7258;50.376;8.742;2023-09-18T13:12:57;24.10;99.90
14349;DHT22;7258;50.376;8.742;2023-09-18T13:15:02;24.30;99.90
14349;DHT22;7258;50.376;8.742;2023-09-18T13:17:10;24.50;99.90
14349;DHT22;7258;50.376;8.742;2023-09-18T13:19:13;24.70;99.90
14349;DHT22;7258;50.376;8.742;2023-09-18T13:21:15;24.60;99.90
14349;DHT22;7258;50.376;8.742;2023-09-18T13:23:18;24.60;99.90
14349;DHT22;7258;50.376;8.742;2023-09-18T13:25:27;24.60;99.90
14349;DHT22;7258;50.376;8.742;2023-09-18T13:27:30;24.60;99.90
14349;DHT22;7258;50.376;8.742;2023-09-18T13:29:32;24.50;99.90
14349;DHT22;7258;50.376;8.742;2023-09-18T13:31:35;24.30;99.90
14349;DHT22;7258;50.376;8.742;2023-09-18T13:33:39;24.20;99.90
14349;DHT22;7258;50.376;8.742;2023-09-18T13:35:45;24.20;99.90
14349;DHT22;7258;50.376;8.742;2023-09-18T13:37:47;24.20;99.90
14349;DHT22;7258;50.376;8.742;2023-09-18T13:39:50;24.40;99.90
14349;DHT22;7258;50.376;8.742;2023-09-18T13:41:53;24.50;99.90
14349;DHT22;7258;50.376;8.742;2023-09-18T13:43:56;24.60;99.90